createdAt,value
2023-07-25T00:03:24.460Z,26.52
2023-07-25T00:08:26.400Z,26.54
2023-07-25T00:13:28.705Z,26.50
2023-07-25T00:18:30.918Z,26.45
2023-07-25T00:23:33.046Z,26.43
2023-07-25T00:28:35.078Z,26.53
2023-07-25T00:33:37.128Z,26.50
2023-07-25T00:38:39.214Z,26.49
2023-07-25T00:43:41.151Z,26.51
2023-07-25T00:48:46.151Z,26.46
2023-07-25T00:53:48.156Z,26.43
2023-07-25T00:58:50.269Z,26.49
2023-07-25T01:03:55.009Z,26.48
2023-07-25T01:08:57.959Z,26.49
2023-07-25T01:14:00.047Z,26.47
2023-07-25T01:19:02.437Z,26.43
2023-07-25T01:24:04.870Z,26.44
2023-07-25T01:29:06.932Z,26.40
2023-07-25T01:34:08.973Z,26.44
2023-07-25T01:39:11.262Z,26.38
2023-07-25T01:44:13.621Z,26.43
2023-07-25T01:49:15.663Z,26.43
2023-07-25T01:54:20.772Z,26.41
2023-07-25T01:59:22.905Z,26.45
2023-07-25T02:04:24.893Z,26.42
2023-07-25T02:09:26.945Z,26.42
2023-07-25T02:14:28.955Z,26.40
2023-07-25T02:19:31.342Z,26.41
2023-07-25T02:24:33.402Z,26.36
2023-07-25T02:29:35.386Z,26.43
2023-07-25T02:34:37.306Z,26.40
2023-07-25T02:39:39.322Z,26.37
2023-07-25T02:44:41.224Z,26.40
2023-07-25T02:49:43.364Z,26.41
2023-07-25T02:54:45.478Z,26.34
2023-07-25T02:59:47.419Z,26.40
2023-07-25T03:04:49.387Z,26.40
2023-07-25T03:09:51.522Z,26.37
2023-07-25T03:14:53.366Z,26.36
2023-07-25T03:19:55.393Z,26.36
2023-07-25T03:24:57.523Z,26.38
2023-07-25T03:29:59.747Z,26.36
2023-07-25T03:35:02.017Z,26.36
2023-07-25T03:40:04.393Z,26.38
2023-07-25T03:45:06.859Z,26.40
2023-07-25T03:50:09.034Z,26.39
2023-07-25T03:55:11.429Z,26.40
2023-07-25T04:00:14.092Z,26.36
2023-07-25T04:05:16.630Z,26.39
2023-07-25T04:10:18.747Z,26.36
2023-07-25T04:15:20.817Z,26.42
2023-07-25T04:20:22.635Z,26.34
2023-07-25T04:25:24.985Z,26.41
2023-07-25T04:30:27.201Z,26.37
2023-07-25T04:35:29.088Z,26.38
2023-07-25T04:40:31.023Z,26.42
2023-07-25T04:45:33.062Z,26.36
2023-07-25T04:50:35.144Z,26.35
2023-07-25T04:55:37.312Z,26.32
2023-07-25T05:00:39.535Z,26.35
2023-07-25T05:05:41.525Z,26.35
2023-07-25T05:10:43.448Z,26.38
2023-07-25T05:15:45.569Z,26.38
2023-07-25T05:20:47.633Z,26.34
2023-07-25T05:25:49.536Z,26.35
2023-07-25T05:30:51.437Z,26.30
2023-07-25T05:36:01.216Z,26.31
2023-07-25T05:41:04.116Z,26.35
2023-07-25T05:46:06.596Z,26.34
2023-07-25T05:51:08.489Z,26.35
2023-07-25T05:56:10.656Z,26.32
2023-07-25T06:01:16.409Z,26.31
2023-07-25T06:06:18.532Z,26.29
2023-07-25T06:11:22.660Z,26.31
2023-07-25T06:16:24.873Z,26.27
2023-07-25T06:21:27.577Z,26.48
2023-07-25T06:26:30.013Z,26.48
2023-07-25T06:31:32.756Z,26.42
2023-07-25T06:36:35.105Z,26.24
2023-07-25T06:41:37.403Z,26.26
2023-07-25T06:46:39.486Z,26.32
2023-07-25T06:51:41.732Z,26.28
2023-07-25T06:56:43.907Z,26.38
2023-07-25T07:01:46.047Z,26.32
2023-07-25T07:06:48.166Z,26.20
2023-07-25T07:11:50.159Z,26.25
2023-07-25T07:16:52.148Z,26.26
2023-07-25T07:21:54.204Z,26.15
2023-07-25T07:26:56.379Z,26.30
2023-07-25T07:31:58.370Z,26.35
2023-07-25T07:37:00.301Z,26.28
2023-07-25T07:42:02.993Z,26.29
2023-07-25T07:47:05.511Z,26.30
2023-07-25T07:52:15.392Z,26.30
2023-07-25T07:57:19.490Z,26.31
2023-07-25T08:02:21.749Z,26.32
2023-07-25T08:07:23.810Z,26.28
2023-07-25T08:12:26.092Z,26.36
2023-07-25T08:17:29.892Z,26.36
2023-07-25T08:22:31.946Z,26.36
2023-07-25T08:27:33.976Z,26.35
2023-07-25T08:32:36.298Z,26.29
2023-07-25T08:37:38.685Z,26.34
2023-07-25T08:42:46.841Z,26.36
2023-07-25T08:47:51.466Z,26.36
2023-07-25T08:52:57.059Z,26.27
2023-07-25T08:57:59.348Z,26.34
2023-07-25T09:03:01.533Z,26.31
2023-07-25T09:08:06.921Z,26.35
2023-07-25T09:13:09.127Z,26.36
2023-07-25T09:18:11.275Z,26.33
2023-07-25T09:23:21.547Z,26.33
2023-07-25T09:28:23.680Z,26.32
2023-07-25T09:33:29.010Z,26.34
2023-07-25T09:38:31.140Z,26.35
2023-07-25T09:43:33.188Z,26.36
2023-07-25T09:48:35.284Z,26.35
2023-07-25T09:53:37.591Z,26.29
2023-07-25T09:58:50.743Z,26.31
2023-07-25T10:04:02.271Z,26.31
2023-07-25T10:09:05.269Z,26.33
2023-07-25T10:14:10.342Z,26.32
2023-07-25T10:19:12.605Z,26.34
2023-07-25T10:24:14.874Z,26.27
2023-07-25T10:29:36.863Z,26.28
2023-07-25T10:34:46.676Z,26.31
2023-07-25T10:40:02.433Z,26.32
2023-07-25T10:45:04.901Z,26.27
2023-07-25T10:50:07.594Z,26.22
2023-07-25T10:55:11.968Z,26.20
2023-07-25T11:00:14.932Z,26.23
2023-07-25T11:05:19.834Z,26.27
2023-07-25T11:10:27.353Z,26.31
2023-07-25T11:15:46.578Z,26.30
2023-07-25T11:21:06.641Z,26.27
2023-07-25T11:26:09.024Z,26.21
2023-07-25T11:31:11.231Z,26.27
2023-07-25T11:36:13.523Z,26.29
2023-07-25T11:41:15.822Z,26.35
2023-07-25T11:46:19.552Z,26.30
2023-07-25T11:51:22.148Z,26.16
2023-07-25T11:56:24.930Z,26.14
2023-07-25T12:01:33.302Z,26.09
2023-07-25T12:06:35.969Z,26.13
2023-07-25T12:11:43.325Z,26.12
2023-07-25T12:16:46.733Z,26.09
2023-07-25T12:21:48.974Z,26.07
2023-07-25T12:26:56.203Z,26.16
2023-07-25T12:31:58.441Z,26.29
2023-07-25T12:37:02.297Z,26.35
2023-07-25T12:42:05.624Z,26.40
2023-07-25T12:47:09.175Z,26.43
2023-07-25T12:52:11.408Z,26.45
2023-07-25T12:57:13.492Z,26.47
2023-07-25T13:02:15.743Z,26.43
2023-07-25T13:07:18.078Z,26.48
2023-07-25T13:12:20.228Z,26.46
2023-07-25T13:17:22.360Z,26.47
2023-07-25T13:22:26.389Z,26.16
2023-07-25T13:27:30.570Z,26.04
2023-07-25T13:32:32.940Z,25.89
2023-07-25T13:37:35.174Z,25.96
2023-07-25T13:42:37.381Z,25.96
2023-07-25T13:47:39.711Z,25.98
2023-07-25T13:52:41.867Z,26.01
2023-07-25T13:57:44.568Z,25.91
2023-07-25T14:02:54.420Z,25.89
2023-07-25T14:07:56.710Z,26.01
2023-07-25T14:12:58.980Z,26.19
2023-07-25T14:18:01.921Z,26.26
2023-07-25T14:23:04.078Z,26.33
2023-07-25T14:28:06.205Z,26.36
2023-07-25T14:33:08.620Z,26.39
2023-07-25T14:38:12.511Z,26.44
2023-07-25T14:43:16.634Z,26.47
2023-07-25T14:48:19.005Z,26.52
2023-07-25T14:53:21.461Z,26.45
2023-07-25T14:58:23.907Z,26.49
2023-07-25T15:03:26.159Z,26.46
2023-07-25T15:08:28.212Z,26.46
2023-07-25T15:13:30.252Z,26.51
2023-07-25T15:18:32.321Z,26.50
2023-07-25T15:23:34.297Z,26.45
2023-07-25T15:28:36.195Z,26.50
2023-07-25T15:33:38.386Z,26.46
2023-07-25T15:38:40.405Z,26.49
2023-07-25T15:43:42.471Z,26.42
2023-07-25T15:48:46.825Z,26.40
2023-07-25T15:53:50.604Z,26.35
2023-07-25T15:58:52.472Z,26.32
2023-07-25T16:03:54.372Z,26.32
2023-07-25T16:08:57.506Z,26.31
2023-07-25T16:13:59.714Z,26.32
2023-07-25T16:19:02.161Z,26.29
2023-07-25T16:24:04.376Z,26.30
2023-07-25T16:29:06.358Z,26.30
2023-07-25T16:34:08.713Z,26.31
2023-07-25T16:39:11.516Z,26.27
2023-07-25T16:44:13.486Z,26.27
2023-07-25T16:49:15.866Z,26.26
2023-07-25T16:54:18.420Z,26.25
2023-07-25T16:59:20.527Z,26.27
2023-07-25T17:04:22.522Z,26.19
2023-07-25T17:09:24.726Z,26.15
2023-07-25T17:14:26.779Z,26.16
2023-07-25T17:19:28.955Z,26.11
2023-07-25T17:24:31.200Z,26.11
2023-07-25T17:29:33.291Z,25.96
2023-07-25T17:34:35.488Z,26.08
2023-07-25T17:39:37.700Z,26.19
2023-07-25T17:44:39.708Z,26.21
2023-07-25T17:49:41.728Z,26.25
2023-07-25T17:54:43.914Z,26.22
2023-07-25T17:59:45.833Z,26.26
2023-07-25T18:04:47.855Z,26.23
2023-07-25T18:09:49.823Z,26.19
2023-07-25T18:14:53.403Z,26.21
2023-07-25T18:19:55.929Z,26.17
2023-07-25T18:24:57.994Z,26.16
2023-07-25T18:30:00.048Z,26.20
2023-07-25T18:35:02.625Z,26.22
2023-07-25T18:40:05.077Z,26.21
2023-07-25T18:45:07.646Z,26.17
2023-07-25T18:50:09.924Z,26.21
2023-07-25T18:55:11.971Z,26.22
2023-07-25T19:00:14.558Z,26.15
2023-07-25T19:05:16.672Z,26.17
2023-07-25T19:10:19.178Z,26.14
2023-07-25T19:15:21.483Z,26.14
2023-07-25T19:20:24.204Z,26.16
2023-07-25T19:25:26.145Z,26.14
2023-07-25T19:30:28.153Z,26.12
2023-07-25T19:35:30.319Z,26.12
2023-07-25T19:40:34.286Z,26.10
2023-07-25T19:45:36.316Z,26.02
2023-07-25T19:50:46.545Z,26.01
2023-07-25T19:55:55.422Z,25.95
2023-07-25T20:00:59.002Z,25.91
2023-07-25T20:06:01.337Z,25.91
2023-07-25T20:11:04.872Z,25.86
2023-07-25T20:16:07.101Z,25.87
2023-07-25T20:21:11.521Z,25.86
2023-07-25T20:26:15.068Z,25.82
2023-07-25T20:31:17.675Z,25.82
2023-07-25T20:36:19.946Z,25.83
2023-07-25T20:41:22.136Z,25.84
2023-07-25T20:46:24.280Z,25.90
2023-07-25T20:51:26.867Z,25.99
2023-07-25T20:56:30.540Z,25.99
2023-07-25T21:01:32.871Z,25.96
2023-07-25T21:06:35.884Z,26.03
2023-07-25T21:11:37.856Z,26.06
2023-07-25T21:16:39.905Z,26.04
2023-07-25T21:21:41.925Z,26.03
2023-07-25T21:26:44.118Z,26.03
2023-07-25T21:31:46.058Z,26.06
2023-07-25T21:36:50.010Z,26.05
2023-07-25T21:41:52.257Z,26.06
2023-07-25T21:46:54.651Z,26.08
2023-07-25T21:51:56.434Z,26.04
2023-07-25T21:56:58.472Z,26.08
2023-07-25T22:02:00.410Z,26.07
2023-07-25T22:07:03.487Z,26.07
2023-07-25T22:12:07.234Z,26.06
2023-07-25T22:17:09.129Z,26.09
2023-07-25T22:22:11.241Z,26.09
2023-07-25T22:27:13.283Z,26.06
2023-07-25T22:32:15.168Z,26.11
2023-07-25T22:37:17.370Z,26.08
2023-07-25T22:42:19.376Z,26.10
2023-07-25T22:47:21.473Z,26.06
2023-07-25T22:52:24.989Z,26.05
2023-07-25T22:57:27.020Z,26.04
2023-07-25T23:02:29.939Z,26.08
2023-07-25T23:07:32.095Z,26.11
2023-07-25T23:12:34.149Z,26.11
2023-07-25T23:17:36.364Z,26.14
2023-07-25T23:22:38.379Z,26.11
2023-07-25T23:27:40.444Z,26.11
2023-07-25T23:32:42.562Z,26.12
2023-07-25T23:37:44.582Z,26.10
2023-07-25T23:42:46.624Z,26.10
2023-07-25T23:47:48.601Z,26.11
2023-07-25T23:52:50.697Z,26.07
2023-07-25T23:57:52.928Z,26.07
